หน้าหลัก
METAR-TAF:

METAR-TAF

ท่าอากาศยาน :

Chaitén, ชิลี

ละติจูด: 42-55-58S, ลองจิจูด: 072-41-58W, ความสูง: 4 ม.

การสังเกตสภาพอากาศปัจจุบัน

รายงานได้ทำขึ้นเมื่อ 31 นาทีที่แล้ว ณ เวลา 19:00 UTC
ลม 4 นอตจากใต้/ตะวันตกเฉียงใต้, แปรผันระหว่างใต้/ตะวันออกเฉียงใต้ และตะวันตก/ตะวันตกเฉียงใต้
อุณหภูมิ 8°C
ความชื้น 81%
ความกดอากาศ 1023 hPa
ทัศนวิสัย 10 กม. หรือมากกว่า
มีเมฆน้อยที่ความสูง 1300 ฟุต
มีเมฆเป็นส่วนมากเว้นเป็นระยะที่ความสูง 5000 ฟุต

METAR: SCTN 201900Z 20004KT 160V240 9999 FEW013 BKN050 08/05 Q1023

เวลา: 15:31 (19:31 UTC)


TAF: หายไป

สังเกตการณ์สภาพอากาศและพยากรณ์อากาศของสนามบินมากกว่า 4000 แห่ง (รายงาน METAR และ TAF).

สถานีที่ดูได้จะแสดงไว้ด้วยจุดสีเหลืองและสีแดงบนแผนที่.

เลื่อนเมาส์ไปเหนือจุดเพื่อดูชื่อสถานี.

แล้วคลิกเพื่อดูสังเกตการณ์และการพยากรณ์สภาพอากาศ.

ในการเปลี่ยนแผนที่: คลิกที่ปุ่มสีเขียวที่มีกากบาทสีดำเพื่อซูมเข้า; ที่ปุ่มสีเขียวที่มีขีดเพื่อซูมออก; หรือที่ลูกศรสีเขียวเพื่อไปยังแผนที่ที่อยู่ติดกัน.


METAR-TAF: